createdAt,value
2019-02-06T00:00:54.137Z,100.00
2019-02-06T00:03:25.612Z,100.00
2019-02-06T00:05:54.787Z,100.00
2019-02-06T00:08:24.222Z,100.00
2019-02-06T00:10:53.468Z,100.00
2019-02-06T00:13:22.564Z,100.00
2019-02-06T00:15:52.007Z,100.00
2019-02-06T00:18:21.192Z,100.00
2019-02-06T00:20:50.296Z,100.00
2019-02-06T00:23:19.469Z,100.00
2019-02-06T00:25:48.642Z,100.00
2019-02-06T00:28:17.644Z,100.00
2019-02-06T00:30:47.205Z,100.00
2019-02-06T00:33:17.346Z,100.00
2019-02-06T00:35:46.426Z,100.00
2019-02-06T00:38:15.531Z,100.00
2019-02-06T00:40:44.610Z,100.00
2019-02-06T00:43:13.790Z,100.00
2019-02-06T00:45:43.365Z,100.00
2019-02-06T00:48:12.479Z,100.00
2019-02-06T00:50:41.678Z,100.00
2019-02-06T00:53:10.849Z,100.00
2019-02-06T00:55:40.031Z,100.00
2019-02-06T00:58:09.412Z,100.00
2019-02-06T01:00:38.920Z,100.00
2019-02-06T01:03:08.562Z,100.00
2019-02-06T01:05:38.850Z,100.00
2019-02-06T01:08:08.103Z,100.00
2019-02-06T01:10:37.245Z,100.00
2019-02-06T01:13:06.485Z,100.00
2019-02-06T01:15:35.642Z,100.00
2019-02-06T01:18:04.925Z,100.00
2019-02-06T01:20:36.200Z,100.00
2019-02-06T01:23:05.513Z,100.00
2019-02-06T01:25:34.637Z,100.00
2019-02-06T01:28:03.793Z,100.00
2019-02-06T01:30:49.480Z,100.00
2019-02-06T01:33:19.624Z,100.00
2019-02-06T01:35:50.161Z,100.00
2019-02-06T01:38:19.675Z,100.00
2019-02-06T01:40:48.729Z,100.00
2019-02-06T01:43:19.500Z,100.00
2019-02-06T01:45:48.584Z,100.00
2019-02-06T01:48:17.589Z,100.00
2019-02-06T01:50:48.999Z,100.00
2019-02-06T01:53:18.217Z,100.00
2019-02-06T01:55:47.337Z,100.00
2019-02-06T01:58:16.715Z,99.78
2019-02-06T02:00:45.880Z,99.64
2019-02-06T02:03:15.299Z,99.64
2019-02-06T02:05:44.406Z,99.55
2019-02-06T02:08:13.531Z,99.25
2019-02-06T02:10:42.722Z,99.63
2019-02-06T02:13:11.907Z,99.17
2019-02-06T02:15:41.079Z,98.30
2019-02-06T02:18:10.227Z,99.09
2019-02-06T02:20:39.402Z,99.09
2019-02-06T02:23:08.605Z,98.15
2019-02-06T02:25:37.697Z,98.18
2019-02-06T02:28:06.798Z,97.69
2019-02-06T02:30:40.911Z,97.69
2019-02-06T02:33:10.092Z,97.48
2019-02-06T02:35:39.122Z,97.08
2019-02-06T02:38:08.295Z,97.08
2019-02-06T02:40:37.550Z,96.76
2019-02-06T02:43:06.742Z,96.76
2019-02-06T02:45:37.083Z,96.90
2019-02-06T02:48:06.227Z,96.10
2019-02-06T02:50:35.407Z,96.41
2019-02-06T02:53:04.647Z,96.09
2019-02-06T02:55:33.658Z,95.93
2019-02-06T02:58:02.808Z,95.19
2019-02-06T03:00:45.616Z,95.19
2019-02-06T03:03:42.674Z,94.45
2019-02-06T03:06:12.240Z,95.01
2019-02-06T03:08:41.402Z,95.00
2019-02-06T03:11:11.471Z,94.73
2019-02-06T03:13:40.591Z,94.73
2019-02-06T03:16:11.845Z,94.64
2019-02-06T03:18:41.045Z,95.31
2019-02-06T03:21:10.448Z,94.33
2019-02-06T03:23:39.634Z,94.33
2019-02-06T03:26:08.899Z,94.29
2019-02-06T03:28:38.048Z,94.56
2019-02-06T03:31:07.231Z,94.47
2019-02-06T03:33:36.377Z,93.84
2019-02-06T03:36:06.350Z,93.84
2019-02-06T03:38:35.485Z,94.57
2019-02-06T03:41:04.990Z,94.57
2019-02-06T03:43:34.169Z,94.05
2019-02-06T03:46:07.569Z,93.90
2019-02-06T03:48:36.765Z,94.07
2019-02-06T03:51:06.015Z,94.07
2019-02-06T03:53:35.016Z,94.40
2019-02-06T03:56:04.191Z,94.40
2019-02-06T03:58:33.494Z,94.02
2019-02-06T04:01:02.647Z,94.02
2019-02-06T04:03:31.781Z,93.67
2019-02-06T04:06:01.298Z,94.16
2019-02-06T04:08:30.331Z,94.16
2019-02-06T04:10:59.417Z,92.79
2019-02-06T04:13:28.537Z,92.35
2019-02-06T04:15:57.591Z,92.77
2019-02-06T04:18:26.664Z,93.23
2019-02-06T04:20:55.859Z,93.08
2019-02-06T04:23:24.938Z,92.91
2019-02-06T04:25:54.110Z,92.11
2019-02-06T04:28:23.240Z,92.11
2019-02-06T04:30:52.239Z,92.30
2019-02-06T04:33:21.576Z,92.75
2019-02-06T04:35:50.673Z,92.68
2019-02-06T04:38:19.721Z,92.68
2019-02-06T04:40:48.711Z,92.91
2019-02-06T04:43:17.774Z,92.21
2019-02-06T04:45:46.781Z,92.21
2019-02-06T04:48:15.862Z,92.18
2019-02-06T04:50:44.914Z,91.49
2019-02-06T04:53:14.183Z,92.07
2019-02-06T04:55:43.180Z,92.79
2019-02-06T04:58:12.242Z,92.79
2019-02-06T05:00:41.435Z,92.59
2019-02-06T05:03:10.620Z,92.13
2019-02-06T05:05:39.843Z,92.67
2019-02-06T05:08:09.382Z,92.67
2019-02-06T05:10:38.493Z,91.86
2019-02-06T05:13:07.593Z,91.74
2019-02-06T05:15:36.727Z,91.67
2019-02-06T05:18:05.914Z,91.61
2019-02-06T05:20:40.040Z,91.61
2019-02-06T05:23:10.111Z,91.85
2019-02-06T05:25:39.285Z,91.85
2019-02-06T05:28:09.565Z,92.31
2019-02-06T05:30:38.580Z,92.41
2019-02-06T05:33:07.611Z,92.41
2019-02-06T05:35:36.689Z,91.43
2019-02-06T05:38:07.829Z,91.43
2019-02-06T05:40:36.936Z,92.12
2019-02-06T05:43:06.089Z,92.10
2019-02-06T05:45:35.267Z,91.93
2019-02-06T05:48:04.624Z,92.15
2019-02-06T05:50:33.768Z,92.30
2019-02-06T05:53:02.814Z,92.00
2019-02-06T05:55:31.998Z,91.77
2019-02-06T05:58:01.089Z,92.55
2019-02-06T06:00:34.494Z,91.50
2019-02-06T06:03:03.688Z,92.08
2019-02-06T06:05:32.762Z,92.08
2019-02-06T06:08:01.834Z,91.76
2019-02-06T06:10:31.009Z,91.76
2019-02-06T06:13:00.082Z,91.51
2019-02-06T06:15:30.800Z,91.51
2019-02-06T06:17:59.807Z,91.73
2019-02-06T06:20:28.909Z,90.73
2019-02-06T06:22:58.001Z,90.58
2019-02-06T06:25:27.394Z,90.58
2019-02-06T06:27:56.411Z,90.71
2019-02-06T06:30:25.515Z,90.48
2019-02-06T06:32:54.602Z,90.87
2019-02-06T06:35:23.733Z,90.77
2019-02-06T06:37:59.930Z,90.77
2019-02-06T06:40:23.864Z,91.11
2019-02-06T06:42:52.953Z,90.80
2019-02-06T06:45:23.719Z,91.16
2019-02-06T06:47:52.901Z,90.36
2019-02-06T06:50:23.608Z,90.59
2019-02-06T06:52:52.865Z,90.59
2019-02-06T06:55:22.343Z,90.88
2019-02-06T06:57:51.624Z,90.88
2019-02-06T07:00:25.462Z,91.94
2019-02-06T07:02:54.675Z,92.14
2019-02-06T07:05:23.930Z,92.22
2019-02-06T07:07:53.612Z,93.90
2019-02-06T07:10:24.599Z,95.14
2019-02-06T07:12:53.783Z,96.36
2019-02-06T07:15:30.991Z,96.83
2019-02-06T07:18:00.283Z,96.09
2019-02-06T07:20:29.446Z,97.23
2019-02-06T07:22:58.904Z,98.40
2019-02-06T07:25:28.002Z,96.91
2019-02-06T07:27:57.181Z,97.95
2019-02-06T07:30:31.315Z,98.55
2019-02-06T07:33:02.862Z,98.55
2019-02-06T07:35:31.972Z,100.00
2019-02-06T07:38:01.435Z,100.00
2019-02-06T07:40:34.438Z,100.00
2019-02-06T07:43:03.502Z,100.00
2019-02-06T07:45:32.532Z,100.00
2019-02-06T07:48:01.680Z,100.00
2019-02-06T07:50:32.633Z,100.00
2019-02-06T07:53:01.775Z,100.00
2019-02-06T07:55:33.066Z,100.00
2019-02-06T07:58:02.093Z,100.00
2019-02-06T08:00:31.207Z,100.00
2019-02-06T08:03:00.610Z,100.00
2019-02-06T08:05:30.147Z,100.00
2019-02-06T08:07:59.458Z,100.00
2019-02-06T08:10:33.621Z,100.00
2019-02-06T08:13:03.013Z,100.00
2019-02-06T08:15:32.286Z,100.00
2019-02-06T08:18:01.444Z,100.00
2019-02-06T08:20:31.651Z,100.00
2019-02-06T08:23:00.765Z,100.00
2019-02-06T08:25:29.863Z,100.00
2019-02-06T08:27:59.045Z,100.00
2019-02-06T08:30:30.428Z,100.00
2019-02-06T08:32:59.623Z,100.00
2019-02-06T08:35:28.793Z,100.00
2019-02-06T08:37:57.872Z,100.00
2019-02-06T08:40:27.245Z,100.00
2019-02-06T08:42:56.264Z,100.00
2019-02-06T08:45:26.000Z,100.00
2019-02-06T08:47:55.176Z,100.00
2019-02-06T08:50:24.462Z,100.00
2019-02-06T08:52:53.725Z,100.00
2019-02-06T08:55:25.066Z,100.00
2019-02-06T08:57:54.266Z,100.00
2019-02-06T09:00:28.244Z,100.00
2019-02-06T09:02:57.391Z,100.00
2019-02-06T09:05:26.852Z,100.00
2019-02-06T09:07:56.013Z,100.00
2019-02-06T09:10:25.590Z,100.00
2019-02-06T09:12:55.263Z,100.00
2019-02-06T09:15:27.177Z,100.00
2019-02-06T09:17:55.338Z,100.00
2019-02-06T09:20:25.557Z,100.00
2019-02-06T09:22:54.781Z,100.00
2019-02-06T09:25:24.388Z,100.00
2019-02-06T09:27:54.234Z,100.00
2019-02-06T09:30:25.523Z,100.00
2019-02-06T09:32:57.281Z,100.00
2019-02-06T09:35:26.819Z,100.00
2019-02-06T09:37:55.991Z,100.00
2019-02-06T09:40:27.049Z,100.00
2019-02-06T09:42:57.173Z,100.00
2019-02-06T09:45:26.371Z,100.00
2019-02-06T09:47:55.443Z,100.00
2019-02-06T09:50:28.166Z,100.00
2019-02-06T09:52:57.332Z,100.00
2019-02-06T09:55:26.514Z,100.00
2019-02-06T09:57:55.789Z,100.00
2019-02-06T10:00:27.214Z,100.00
2019-02-06T10:02:56.411Z,100.00
2019-02-06T10:05:25.622Z,100.00
2019-02-06T10:07:54.787Z,100.00
2019-02-06T10:10:24.706Z,100.00
2019-02-06T10:12:53.884Z,100.00
2019-02-06T10:15:25.100Z,100.00
2019-02-06T10:17:54.920Z,100.00
2019-02-06T10:20:25.876Z,100.00
2019-02-06T10:22:56.713Z,100.00
2019-02-06T10:25:25.874Z,100.00
2019-02-06T10:27:54.966Z,100.00
2019-02-06T10:30:30.102Z,100.00
2019-02-06T10:33:00.590Z,100.00
2019-02-06T10:35:29.735Z,100.00
2019-02-06T10:37:58.894Z,100.00
2019-02-06T10:40:28.444Z,100.00
2019-02-06T10:42:57.643Z,100.00
2019-02-06T10:45:26.715Z,100.00
2019-02-06T10:47:56.221Z,100.00
2019-02-06T10:50:26.793Z,100.00
2019-02-06T10:52:55.880Z,100.00
2019-02-06T10:55:24.992Z,100.00
2019-02-06T10:57:54.074Z,100.00
2019-02-06T11:00:29.712Z,100.00
2019-02-06T11:02:57.367Z,100.00
2019-02-06T11:05:26.523Z,100.00
2019-02-06T11:07:55.714Z,100.00
2019-02-06T11:10:24.963Z,100.00
2019-02-06T11:12:54.165Z,100.00
2019-02-06T11:15:24.402Z,100.00
2019-02-06T11:17:53.896Z,100.00
2019-02-06T11:20:23.471Z,100.00
2019-02-06T11:22:52.659Z,100.00
2019-02-06T11:25:21.756Z,100.00
2019-02-06T11:27:50.899Z,100.00
2019-02-06T11:30:22.662Z,100.00
2019-02-06T11:32:52.107Z,100.00
2019-02-06T11:35:21.230Z,100.00
2019-02-06T11:37:50.423Z,100.00
2019-02-06T11:40:21.438Z,100.00
2019-02-06T11:42:50.825Z,100.00
2019-02-06T11:45:22.258Z,100.00
2019-02-06T11:47:51.496Z,100.00
2019-02-06T11:50:24.442Z,100.00
2019-02-06T11:52:53.688Z,100.00
2019-02-06T11:55:23.614Z,100.00
2019-02-06T11:57:52.787Z,100.00
2019-02-06T12:00:32.592Z,100.00
2019-02-06T12:03:01.775Z,100.00
2019-02-06T12:05:30.890Z,100.00
2019-02-06T12:07:59.969Z,100.00
2019-02-06T12:10:29.065Z,100.00
2019-02-06T12:12:58.075Z,100.00
2019-02-06T12:15:27.456Z,100.00
2019-02-06T12:17:56.487Z,100.00
2019-02-06T12:20:26.064Z,100.00
2019-02-06T12:22:55.216Z,100.00
2019-02-06T12:25:24.412Z,100.00
2019-02-06T12:27:53.825Z,100.00
2019-02-06T12:30:26.231Z,100.00
2019-02-06T12:32:55.374Z,100.00
2019-02-06T12:35:24.518Z,100.00
2019-02-06T12:37:53.684Z,100.00
2019-02-06T12:40:23.966Z,100.00
2019-02-06T12:42:53.140Z,100.00
2019-02-06T12:45:22.532Z,100.00
2019-02-06T12:47:52.877Z,100.00
2019-02-06T12:50:22.562Z,100.00
2019-02-06T12:52:51.740Z,100.00
2019-02-06T12:55:23.488Z,100.00
2019-02-06T12:57:52.697Z,100.00
2019-02-06T13:00:27.161Z,100.00
2019-02-06T13:02:59.856Z,100.00
2019-02-06T13:05:27.602Z,100.00
2019-02-06T13:07:56.755Z,100.00
2019-02-06T13:10:33.202Z,100.00
2019-02-06T13:12:56.921Z,100.00
2019-02-06T13:15:25.988Z,100.00
2019-02-06T13:17:55.544Z,100.00
2019-02-06T13:20:27.884Z,100.00
2019-02-06T13:22:57.187Z,100.00
2019-02-06T13:25:26.572Z,100.00
2019-02-06T13:27:55.669Z,100.00
2019-02-06T13:30:26.988Z,100.00
2019-02-06T13:32:56.284Z,100.00
2019-02-06T13:35:25.370Z,100.00
2019-02-06T13:37:54.548Z,100.00
2019-02-06T13:40:24.800Z,100.00
2019-02-06T13:42:54.058Z,100.00
2019-02-06T13:45:25.604Z,100.00
2019-02-06T13:47:56.897Z,100.00
2019-02-06T13:50:26.508Z,100.00
2019-02-06T13:52:55.659Z,100.00
2019-02-06T13:55:24.872Z,100.00
2019-02-06T13:57:54.053Z,100.00
2019-02-06T14:00:25.704Z,100.00
2019-02-06T14:02:54.912Z,100.00
2019-02-06T14:05:26.641Z,100.00
2019-02-06T14:07:58.406Z,100.00
2019-02-06T14:10:28.203Z,100.00
2019-02-06T14:12:57.569Z,100.00
2019-02-06T14:15:29.905Z,100.00
2019-02-06T14:17:59.247Z,100.00
2019-02-06T14:20:28.527Z,100.00
2019-02-06T14:23:25.661Z,100.00
2019-02-06T14:26:06.867Z,100.00
2019-02-06T14:29:14.359Z,100.00
2019-02-06T14:32:15.871Z,100.00
2019-02-06T14:35:06.652Z,100.00
2019-02-06T14:38:06.176Z,100.00
2019-02-06T14:41:08.209Z,100.00
2019-02-06T14:43:59.353Z,100.00
2019-02-06T14:47:01.490Z,100.00
2019-02-06T14:50:02.155Z,100.00
2019-02-06T14:53:03.202Z,100.00
2019-02-06T14:56:10.427Z,100.00
2019-02-06T14:59:36.644Z,100.00
2019-02-06T15:02:31.736Z,100.00
2019-02-06T15:05:15.624Z,100.00
2019-02-06T15:08:16.278Z,100.00
2019-02-06T15:11:03.991Z,100.00
2019-02-06T15:14:16.096Z,100.00
2019-02-06T15:17:16.983Z,100.00
2019-02-06T15:20:18.453Z,100.00
2019-02-06T15:23:32.500Z,100.00
2019-02-06T15:26:20.235Z,100.00
2019-02-06T15:29:02.615Z,100.00
2019-02-06T15:32:16.937Z,100.00
2019-02-06T15:35:12.217Z,100.00
2019-02-06T15:38:17.490Z,100.00
2019-02-06T15:41:11.068Z,100.00
2019-02-06T15:44:11.047Z,100.00
2019-02-06T15:47:17.893Z,100.00
2019-02-06T15:50:31.076Z,100.00
2019-02-06T15:53:28.688Z,100.00
2019-02-06T15:56:44.960Z,100.00
2019-02-06T15:59:24.137Z,100.00
2019-02-06T16:02:16.855Z,100.00
2019-02-06T16:05:35.277Z,100.00
2019-02-06T16:08:11.144Z,100.00
2019-02-06T16:10:54.326Z,100.00
2019-02-06T16:13:52.967Z,100.00
2019-02-06T16:17:02.952Z,100.00
2019-02-06T16:20:04.809Z,100.00
2019-02-06T16:23:21.539Z,100.00
2019-02-06T16:26:36.763Z,100.00
2019-02-06T16:29:28.056Z,100.00
2019-02-06T16:32:27.513Z,100.00
2019-02-06T16:35:17.822Z,100.00
2019-02-06T16:38:10.802Z,100.00
2019-02-06T16:41:20.647Z,100.00
2019-02-06T16:44:20.435Z,100.00
2019-02-06T16:47:45.201Z,100.00
2019-02-06T16:50:37.838Z,100.00
2019-02-06T16:53:32.512Z,100.00
2019-02-06T16:57:10.201Z,100.00
2019-02-06T17:00:25.088Z,100.00
2019-02-06T17:03:39.476Z,100.00
2019-02-06T17:06:54.514Z,100.00
2019-02-06T17:09:38.264Z,100.00
2019-02-06T17:12:41.457Z,100.00
2019-02-06T17:15:50.206Z,100.00
2019-02-06T17:18:43.910Z,100.00
2019-02-06T17:21:45.828Z,100.00
2019-02-06T17:25:11.221Z,100.00
2019-02-06T17:27:48.761Z,100.00
2019-02-06T17:30:32.238Z,100.00
2019-02-06T17:33:38.036Z,100.00
2019-02-06T17:36:34.112Z,100.00
2019-02-06T17:39:37.796Z,100.00
2019-02-06T17:42:27.436Z,100.00
2019-02-06T17:45:27.557Z,100.00
2019-02-06T17:48:18.736Z,100.00
2019-02-06T17:51:02.530Z,100.00
2019-02-06T17:53:50.336Z,100.00
2019-02-06T17:56:19.508Z,100.00
2019-02-06T17:58:48.618Z,100.00
2019-02-06T18:01:28.565Z,100.00
2019-02-06T18:04:04.654Z,100.00
2019-02-06T18:06:33.638Z,100.00
2019-02-06T18:09:05.320Z,100.00
2019-02-06T18:11:34.586Z,100.00
2019-02-06T18:14:04.113Z,100.00
2019-02-06T18:16:33.278Z,100.00
2019-02-06T18:19:02.749Z,100.00
2019-02-06T18:21:32.161Z,100.00
2019-02-06T18:24:01.483Z,100.00
2019-02-06T18:26:31.059Z,100.00
2019-02-06T18:29:01.669Z,100.00
2019-02-06T18:31:30.645Z,100.00
2019-02-06T18:33:59.732Z,100.00
2019-02-06T18:36:28.935Z,100.00
2019-02-06T18:38:57.982Z,100.00
2019-02-06T18:41:27.157Z,100.00
2019-02-06T18:43:57.079Z,100.00
2019-02-06T18:46:26.201Z,100.00
2019-02-06T18:48:55.404Z,100.00
2019-02-06T18:51:24.519Z,100.00
2019-02-06T18:53:53.619Z,100.00
2019-02-06T18:56:22.813Z,100.00
2019-02-06T18:58:51.964Z,100.00
2019-02-06T19:01:21.148Z,100.00
2019-02-06T19:03:53.914Z,100.00
2019-02-06T19:06:23.092Z,100.00
2019-02-06T19:08:52.322Z,100.00
2019-02-06T19:11:24.312Z,100.00
2019-02-06T19:13:52.433Z,100.00
2019-02-06T19:16:21.604Z,100.00
2019-02-06T19:18:50.617Z,100.00
2019-02-06T19:21:20.215Z,100.00
2019-02-06T19:23:49.305Z,100.00
2019-02-06T19:26:18.384Z,100.00
2019-02-06T19:28:47.627Z,100.00
2019-02-06T19:31:16.695Z,100.00
2019-02-06T19:33:45.816Z,100.00
2019-02-06T19:36:19.204Z,100.00
2019-02-06T19:38:49.137Z,100.00
2019-02-06T19:41:18.163Z,100.00
2019-02-06T19:43:47.257Z,100.00
2019-02-06T19:46:16.340Z,100.00
2019-02-06T19:48:45.333Z,100.00
2019-02-06T19:51:14.325Z,100.00
2019-02-06T19:53:43.393Z,100.00
2019-02-06T19:56:12.569Z,100.00
2019-02-06T19:58:41.756Z,100.00
2019-02-06T20:01:11.025Z,100.00
2019-02-06T20:03:40.206Z,100.00
2019-02-06T20:06:09.917Z,100.00
2019-02-06T20:08:39.109Z,100.00
2019-02-06T20:11:08.222Z,100.00
2019-02-06T20:13:37.456Z,100.00
2019-02-06T20:16:06.656Z,100.00
2019-02-06T20:18:35.774Z,100.00
2019-02-06T20:21:04.996Z,100.00
2019-02-06T20:23:34.080Z,100.00
2019-02-06T20:26:03.201Z,100.00
2019-02-06T20:28:32.315Z,100.00
2019-02-06T20:31:01.554Z,100.00
2019-02-06T20:33:30.679Z,100.00
2019-02-06T20:35:59.786Z,100.00
2019-02-06T20:38:28.895Z,100.00
2019-02-06T20:40:57.989Z,100.00
2019-02-06T20:43:27.061Z,100.00
2019-02-06T20:45:56.396Z,100.00
2019-02-06T20:48:26.023Z,100.00
2019-02-06T20:50:55.078Z,100.00
2019-02-06T20:53:24.122Z,100.00
2019-02-06T20:55:53.191Z,100.00
2019-02-06T20:58:22.228Z,100.00
2019-02-06T21:00:51.375Z,100.00
2019-02-06T21:03:20.414Z,100.00
2019-02-06T21:05:49.596Z,100.00
2019-02-06T21:08:18.760Z,100.00
2019-02-06T21:10:47.850Z,100.00
2019-02-06T21:13:18.996Z,100.00
2019-02-06T21:15:48.172Z,100.00
2019-02-06T21:18:17.253Z,100.00
2019-02-06T21:20:46.313Z,100.00
2019-02-06T21:23:15.946Z,100.00
2019-02-06T21:25:44.958Z,100.00
2019-02-06T21:28:14.208Z,100.00
2019-02-06T21:30:43.398Z,100.00
2019-02-06T21:33:12.599Z,100.00
2019-02-06T21:35:41.987Z,100.00
2019-02-06T21:38:11.164Z,100.00
2019-02-06T21:40:40.795Z,100.00
2019-02-06T21:43:09.913Z,100.00
2019-02-06T21:45:39.086Z,100.00
2019-02-06T21:48:08.151Z,100.00
2019-02-06T21:50:37.705Z,100.00
2019-02-06T21:53:06.839Z,100.00
2019-02-06T21:55:35.953Z,100.00
2019-02-06T21:58:05.240Z,100.00
2019-02-06T22:00:37.186Z,100.00
2019-02-06T22:03:06.797Z,100.00
2019-02-06T22:05:37.594Z,100.00
2019-02-06T22:08:06.764Z,100.00
2019-02-06T22:10:35.909Z,100.00
2019-02-06T22:13:05.572Z,100.00
2019-02-06T22:15:34.756Z,100.00
2019-02-06T22:18:03.878Z,100.00
2019-02-06T22:20:32.980Z,100.00
2019-02-06T22:23:02.160Z,100.00
2019-02-06T22:26:17.883Z,100.00
2019-02-06T22:28:02.091Z,100.00
2019-02-06T22:30:31.259Z,100.00
2019-02-06T22:33:00.351Z,100.00
2019-02-06T22:35:29.491Z,100.00
2019-02-06T22:37:58.582Z,100.00
2019-02-06T22:40:27.843Z,100.00
2019-02-06T22:42:56.989Z,100.00
2019-02-06T22:45:27.055Z,100.00
2019-02-06T22:47:56.348Z,100.00
2019-02-06T22:50:26.591Z,100.00
2019-02-06T22:52:55.787Z,100.00
2019-02-06T22:55:25.156Z,100.00
2019-02-06T22:57:54.397Z,100.00
2019-02-06T23:00:50.048Z,100.00
2019-02-06T23:03:29.075Z,100.00
2019-02-06T23:05:58.283Z,100.00
2019-02-06T23:08:27.419Z,100.00
2019-02-06T23:10:56.968Z,100.00
2019-02-06T23:13:26.084Z,100.00
2019-02-06T23:15:57.601Z,100.00
2019-02-06T23:18:26.608Z,100.00
2019-02-06T23:20:55.708Z,100.00
2019-02-06T23:23:24.839Z,100.00
2019-02-06T23:25:54.824Z,100.00
2019-02-06T23:28:23.977Z,100.00
2019-02-06T23:30:52.992Z,100.00
2019-02-06T23:33:22.469Z,100.00
2019-02-06T23:35:51.640Z,100.00
2019-02-06T23:38:20.722Z,100.00
2019-02-06T23:40:50.265Z,100.00
2019-02-06T23:43:19.371Z,100.00
2019-02-06T23:45:48.567Z,100.00
2019-02-06T23:48:17.556Z,100.00
2019-02-06T23:50:46.617Z,100.00
2019-02-06T23:53:15.715Z,100.00
2019-02-06T23:55:45.171Z,100.00
2019-02-06T23:58:14.268Z,100.00
